Terminal Aerodrome Forecast
Issued by NWS Portland, OR

Home | Current Version | Previous Version | Text Only | Print | Product List | Glossary On
Versions: 1 2 3 4 5 6 7 8 9 10 11 12 13 14 15 16 17 18 19 20 21 22
000
FTUS46 KPQR 081143
TAFSLE
TAF
KSLE 081143Z 0812/0912 33006KT P6SM SCT050 BKN100
      TEMPO 0813/0816 -SN
     FM081600 01010KT 2SM -SN BR BKN020 OVC050
     FM081800 01010KT 3/4SM -SN BR BKN008 OVC012
     FM082200 02007KT 2SM -SNPL BR BKN008 OVC012
     FM090000 06008KT 3SM -FZRAPL BR SCT008 OVC012
     FM090300 19009KT 6SM -RA BKN012 OVC035
     FM090800 19007KT 6SM -DZ BR BKN015 OVC040=

USA.gov is the U.S. government's official web portal to all federal, state and local government web resources and services.